createdAt,value
2023-01-27T00:02:38.508Z,94718.34
2023-01-27T00:05:24.211Z,94707.97
2023-01-27T00:08:10.082Z,94710.63
2023-01-27T00:11:17.802Z,94724.47
2023-01-27T00:14:03.415Z,94718.63
2023-01-27T00:16:48.862Z,94723.38
2023-01-27T00:19:34.496Z,94712.19
2023-01-27T00:22:38.664Z,94717.00
2023-01-27T00:25:24.540Z,94721.75
2023-01-27T00:28:10.007Z,94731.63
2023-01-27T00:30:56.972Z,94725.50
2023-01-27T00:33:49.577Z,94732.41
2023-01-27T00:36:36.428Z,94723.34
2023-01-27T00:39:23.179Z,94719.38
2023-01-27T00:42:08.691Z,94716.44
2023-01-27T00:45:13.613Z,94720.44
2023-01-27T00:47:59.513Z,94716.72
2023-01-27T00:50:44.964Z,94716.44
2023-01-27T00:53:31.267Z,94713.28
2023-01-27T00:56:17.159Z,94722.06
2023-01-27T00:59:02.901Z,94716.47
2023-01-27T01:01:48.499Z,94711.16
2023-01-27T01:04:35.432Z,94708.50
2023-01-27T01:07:20.771Z,94702.63
2023-01-27T01:10:06.773Z,94704.22
2023-01-27T01:12:52.949Z,94695.75
2023-01-27T01:15:39.268Z,94692.81
2023-01-27T01:18:25.283Z,94695.75
2023-01-27T01:21:11.368Z,94694.16
2023-01-27T01:24:46.146Z,94692.56
2023-01-27T01:27:34.135Z,94698.94
2023-01-27T01:30:27.472Z,94696.84
2023-01-27T01:33:13.268Z,94690.72
2023-01-27T01:36:03.569Z,94685.13
2023-01-27T01:38:49.301Z,94681.97
2023-01-27T01:41:38.836Z,94683.03
2023-01-27T01:44:27.987Z,94680.06
2023-01-27T01:47:19.597Z,94683.53
2023-01-27T01:50:05.506Z,94682.72
2023-01-27T01:52:54.406Z,94685.69
2023-01-27T01:55:39.877Z,94680.91
2023-01-27T01:58:28.052Z,94687.81
2023-01-27T02:01:15.012Z,94687.53
2023-01-27T02:04:01.246Z,94678.75
2023-01-27T02:07:26.018Z,94681.41
2023-01-27T02:10:13.574Z,94674.50
2023-01-27T02:12:59.244Z,94669.19
2023-01-27T02:15:45.018Z,94671.56
2023-01-27T02:18:30.691Z,94670.78
2023-01-27T02:21:16.204Z,94662.25
2023-01-27T02:24:06.476Z,94667.31
2023-01-27T02:26:51.916Z,94672.91
2023-01-27T02:29:37.807Z,94658.53
2023-01-27T02:32:24.477Z,94675.56
2023-01-27T02:35:12.210Z,94673.72
2023-01-27T02:37:57.963Z,94666.53
2023-01-27T02:40:43.545Z,94669.47
2023-01-27T02:43:29.851Z,94670.53
2023-01-27T02:46:16.088Z,94674.50
2023-01-27T02:49:01.957Z,94670.78
2023-01-27T02:51:47.895Z,94676.13
2023-01-27T02:54:33.714Z,94670.78
2023-01-27T02:57:21.048Z,94682.50
2023-01-27T03:00:24.459Z,94675.06
2023-01-27T03:03:10.068Z,94679.81
2023-01-27T03:05:55.897Z,94687.00
2023-01-27T03:08:41.404Z,94686.19
2023-01-27T03:11:45.500Z,94677.69
2023-01-27T03:14:50.012Z,94680.88
2023-01-27T03:17:54.299Z,94675.56
2023-01-27T03:20:44.443Z,94674.50
2023-01-27T03:23:34.925Z,94678.22
2023-01-27T03:26:21.346Z,94678.22
2023-01-27T03:29:30.313Z,94677.41
2023-01-27T03:32:16.029Z,94678.22
2023-01-27T03:35:15.746Z,94671.81
2023-01-27T03:46:35.688Z,94664.63
2023-01-27T03:53:57.961Z,94657.47
2023-01-27T03:56:43.290Z,94673.97
2023-01-27T04:08:09.750Z,94664.69
2023-01-27T04:19:44.909Z,94681.16
2023-01-27T04:26:59.917Z,94670.81
2023-01-27T04:29:45.481Z,94675.59
2023-01-27T04:37:08.787Z,94658.28
2023-01-27T04:39:54.433Z,94656.72
2023-01-27T04:47:16.799Z,94670.28
2023-01-27T04:50:02.637Z,94666.28
2023-01-27T04:57:25.780Z,94666.03
2023-01-27T05:00:11.882Z,94667.88
2023-01-27T05:07:33.727Z,94689.69
2023-01-27T05:10:19.564Z,94690.47
2023-01-27T05:22:22.715Z,94715.75
2023-01-27T05:25:09.152Z,94713.34
2023-01-27T05:32:31.904Z,94722.41
2023-01-27T05:35:17.728Z,94719.72
2023-01-27T05:42:40.079Z,94728.50
2023-01-27T05:45:25.730Z,94726.09
2023-01-27T05:52:37.904Z,94729.59
2023-01-27T05:55:23.316Z,94742.06
2023-01-27T06:02:45.038Z,94743.69
2023-01-27T06:05:30.482Z,94739.44
2023-01-27T06:12:52.993Z,94724.53
2023-01-27T06:15:40.456Z,94722.41
2023-01-27T06:19:24.514Z,94727.47
2023-01-27T06:26:46.937Z,94735.19
2023-01-27T06:30:23.547Z,94738.91
2023-01-27T06:37:50.029Z,94738.91
2023-01-27T06:40:35.888Z,94734.13
2023-01-27T06:43:21.364Z,94733.03
2023-01-27T06:50:44.207Z,94749.03
2023-01-27T06:53:31.455Z,94759.13
2023-01-27T07:00:54.084Z,94773.22
2023-01-27T07:03:40.019Z,94776.69
2023-01-27T07:07:23.587Z,94773.50
2023-01-27T07:10:09.258Z,94777.22
2023-01-27T07:21:44.861Z,94800.63
2023-01-27T07:24:30.605Z,94800.63
2023-01-27T07:31:53.247Z,94816.06
2023-01-27T07:38:50.881Z,94812.91
2023-01-27T07:46:13.069Z,94817.66
2023-01-27T07:49:50.305Z,94821.13
2023-01-27T07:52:35.727Z,94817.41
2023-01-27T07:55:21.353Z,94806.50
2023-01-27T08:02:17.225Z,94806.47
2023-01-27T08:05:03.023Z,94806.75
2023-01-27T08:07:58.805Z,94817.66
2023-01-27T08:10:49.110Z,94818.72
2023-01-27T08:13:34.939Z,94822.72
2023-01-27T08:16:43.105Z,94812.31
2023-01-27T08:19:28.871Z,94815.78
2023-01-27T08:22:19.836Z,94808.56
2023-01-27T08:34:08.100Z,94785.66
2023-01-27T08:36:53.641Z,94793.13
2023-01-27T08:44:30.433Z,94772.88
2023-01-27T08:47:15.899Z,94787.25
2023-01-27T08:50:05.526Z,94772.34
2023-01-27T08:52:50.857Z,94767.03
2023-01-27T08:55:36.470Z,94779.28
2023-01-27T08:58:21.923Z,94772.38
2023-01-27T09:01:11.735Z,94771.81
2023-01-27T09:03:57.436Z,94780.06
2023-01-27T09:06:44.374Z,94778.19
2023-01-27T09:09:30.004Z,94780.31
2023-01-27T09:12:18.680Z,94785.09
2023-01-27T09:15:04.441Z,94773.91
2023-01-27T09:18:26.867Z,94768.00
2023-01-27T09:21:12.376Z,94773.28
2023-01-27T09:24:20.871Z,94766.84
2023-01-27T09:27:06.500Z,94764.66
2023-01-27T09:29:52.418Z,94753.41
2023-01-27T09:32:38.902Z,94747.47
2023-01-27T09:35:24.392Z,94752.75
2023-01-27T09:38:11.601Z,94747.09
2023-01-27T09:40:59.956Z,94747.03
2023-01-27T09:43:51.961Z,94753.66
2023-01-27T09:46:42.506Z,94754.41
2023-01-27T09:49:34.598Z,94761.03
2023-01-27T09:52:45.452Z,94748.16
2023-01-27T09:55:51.137Z,94745.91
2023-01-27T09:58:36.627Z,94744.69
2023-01-27T10:01:32.549Z,94740.28
2023-01-27T10:04:29.973Z,94739.28
2023-01-27T10:07:22.641Z,94724.44
2023-01-27T10:10:15.246Z,94732.22
2023-01-27T10:13:19.915Z,94739.56
2023-01-27T10:16:14.995Z,94744.00
2023-01-27T10:19:13.176Z,94738.31
2023-01-27T10:22:10.381Z,94736.56
2023-01-27T10:25:23.350Z,94733.09
2023-01-27T10:28:12.701Z,94724.72
2023-01-27T10:30:58.441Z,94730.06
2023-01-27T10:33:50.004Z,94722.94
2023-01-27T10:36:43.774Z,94721.56
2023-01-27T10:39:40.013Z,94725.75
2023-01-27T10:42:44.904Z,94716.06
2023-01-27T10:45:33.996Z,94719.78
2023-01-27T10:48:46.058Z,94715.91
2023-01-27T10:51:39.522Z,94714.38
2023-01-27T10:54:32.645Z,94710.00
2023-01-27T10:57:26.325Z,94702.19
2023-01-27T11:03:27.552Z,94699.16
2023-01-27T11:06:27.589Z,94701.13
2023-01-27T11:09:26.190Z,94698.81
2023-01-27T11:12:12.946Z,94704.25
2023-01-27T11:14:59.639Z,94694.91
2023-01-27T11:17:47.052Z,94701.66
2023-01-27T11:20:54.180Z,94696.44
2023-01-27T11:23:41.053Z,94701.38
2023-01-27T11:26:30.611Z,94704.50
2023-01-27T11:29:35.236Z,94701.78
2023-01-27T11:32:43.374Z,94687.03
2023-01-27T11:35:28.880Z,94689.97
2023-01-27T11:38:15.980Z,94695.94
2023-01-27T11:41:02.680Z,94688.06
2023-01-27T11:43:48.268Z,94687.03
2023-01-27T11:46:38.198Z,94682.59
2023-01-27T11:49:44.154Z,94680.22
2023-01-27T11:52:29.839Z,94681.06
2023-01-27T11:55:15.498Z,94683.56
2023-01-27T11:58:22.767Z,94681.47
2023-01-27T12:01:15.702Z,94678.31
2023-01-27T12:04:08.204Z,94680.81
2023-01-27T12:06:55.706Z,94674.75
2023-01-27T12:09:41.532Z,94688.59
2023-01-27T12:12:28.512Z,94686.00
2023-01-27T12:15:17.733Z,94681.72
2023-01-27T12:18:13.262Z,94681.19
2023-01-27T12:20:59.804Z,94694.00
2023-01-27T12:23:50.348Z,94689.22
2023-01-27T12:26:37.474Z,94689.75
2023-01-27T12:29:27.526Z,94688.91
2023-01-27T12:33:21.638Z,94699.81
2023-01-27T12:36:22.649Z,94704.94
2023-01-27T12:39:13.445Z,94707.59
2023-01-27T12:42:06.429Z,94708.44
2023-01-27T12:44:52.123Z,94699.34
2023-01-27T12:47:37.989Z,94707.91
2023-01-27T12:50:24.271Z,94701.03
2023-01-27T12:53:12.989Z,94708.56
2023-01-27T12:55:59.629Z,94709.19
2023-01-27T12:58:54.690Z,94704.41
2023-01-27T13:01:41.461Z,94712.41
2023-01-27T13:04:27.495Z,94712.13
2023-01-27T13:07:15.144Z,94716.13
2023-01-27T13:10:04.868Z,94712.38
2023-01-27T13:12:55.435Z,94708.63
2023-01-27T13:15:41.173Z,94715.31
2023-01-27T13:18:33.377Z,94715.56
2023-01-27T13:21:19.183Z,94720.91
2023-01-27T13:24:06.769Z,94724.66
2023-01-27T13:26:52.172Z,94724.13
2023-01-27T13:29:38.239Z,94730.53
2023-01-27T13:32:27.805Z,94728.38
2023-01-27T13:35:20.109Z,94727.59
2023-01-27T13:38:11.155Z,94722.50
2023-01-27T13:40:57.816Z,94731.00
2023-01-27T13:43:44.554Z,94731.00
2023-01-27T13:46:37.551Z,94729.72
2023-01-27T13:49:36.275Z,94734.28
2023-01-27T13:52:22.183Z,94740.69
2023-01-27T13:55:12.006Z,94746.63
2023-01-27T13:58:09.304Z,94746.16
2023-01-27T14:00:54.966Z,94749.91
2023-01-27T14:03:45.856Z,94753.09
2023-01-27T14:06:37.620Z,94754.19
2023-01-27T14:09:35.473Z,94773.34
2023-01-27T14:12:28.134Z,94761.13
2023-01-27T14:15:14.071Z,94765.34
2023-01-27T14:18:02.804Z,94772.00
2023-01-27T14:21:03.749Z,94772.25
2023-01-27T14:24:01.215Z,94774.13
2023-01-27T14:27:07.149Z,94780.53
2023-01-27T14:30:13.741Z,94776.03
2023-01-27T14:33:02.502Z,94777.69
2023-01-27T14:35:59.425Z,94767.88
2023-01-27T14:39:17.727Z,94781.50
2023-01-27T14:42:27.603Z,94777.28
2023-01-27T14:45:17.574Z,94775.16
2023-01-27T14:48:21.735Z,94771.41
2023-01-27T14:51:13.556Z,94768.75
2023-01-27T14:54:15.517Z,94771.94
2023-01-27T14:57:19.780Z,94776.47
2023-01-27T15:00:14.162Z,94775.44
2023-01-27T15:02:59.794Z,94789.63
2023-01-27T15:05:49.243Z,94782.16
2023-01-27T15:08:55.102Z,94780.56
2023-01-27T15:11:52.180Z,94781.66
2023-01-27T15:14:57.873Z,94782.72
2023-01-27T15:17:52.711Z,94774.75
2023-01-27T15:20:48.541Z,94781.16
2023-01-27T15:23:52.965Z,94790.25
2023-01-27T15:26:38.742Z,94790.25
2023-01-27T15:29:26.362Z,94802.00
2023-01-27T15:32:18.040Z,94792.44
2023-01-27T15:35:29.454Z,94803.16
2023-01-27T15:38:19.600Z,94807.41
2023-01-27T15:41:08.075Z,94800.25
2023-01-27T15:44:12.368Z,94815.19
2023-01-27T15:47:28.659Z,94813.31
2023-01-27T15:50:21.880Z,94817.59
2023-01-27T15:53:14.432Z,94814.41
2023-01-27T15:56:00.083Z,94816.53
2023-01-27T15:59:14.844Z,94818.41
2023-01-27T16:02:05.418Z,94828.53
2023-01-27T16:05:03.948Z,94836.78
2023-01-27T16:07:53.565Z,94828.28
2023-01-27T16:10:40.088Z,94847.19
2023-01-27T16:13:25.793Z,94843.72
2023-01-27T16:16:17.801Z,94845.84
2023-01-27T16:19:11.652Z,94849.34
2023-01-27T16:22:09.626Z,94846.41
2023-01-27T16:24:58.854Z,94860.00
2023-01-27T16:28:11.432Z,94859.19
2023-01-27T16:31:12.638Z,94854.16
2023-01-27T16:33:58.855Z,94861.59
2023-01-27T16:36:44.719Z,94868.25
2023-01-27T16:39:39.090Z,94879.44
2023-01-27T16:42:32.227Z,94875.72
2023-01-27T16:45:25.293Z,94883.72
2023-01-27T16:48:31.148Z,94879.44
2023-01-27T16:51:20.550Z,94890.09
2023-01-27T16:54:13.491Z,94896.22
2023-01-27T16:56:59.259Z,94895.41
2023-01-27T16:59:44.920Z,94891.69
2023-01-27T17:02:32.131Z,94903.41
2023-01-27T17:05:18.088Z,94899.66
2023-01-27T17:08:04.984Z,94894.34
2023-01-27T17:10:58.244Z,94895.13
2023-01-27T17:13:45.205Z,94900.22
2023-01-27T17:16:41.445Z,94884.50
2023-01-27T17:19:27.741Z,94881.31
2023-01-27T17:22:20.050Z,94891.16
2023-01-27T17:25:07.764Z,94890.09
2023-01-27T17:27:53.194Z,94897.00
2023-01-27T17:30:42.280Z,94888.47
2023-01-27T17:33:28.627Z,94901.25
2023-01-27T17:36:14.370Z,94892.75
2023-01-27T17:39:01.582Z,94902.31
2023-01-27T17:41:47.389Z,94905.25
2023-01-27T17:44:33.532Z,94908.72
2023-01-27T17:47:19.589Z,94906.84
2023-01-27T17:50:08.640Z,94908.72
2023-01-27T17:52:54.144Z,94904.97
2023-01-27T17:55:40.021Z,94915.09
2023-01-27T17:58:26.359Z,94917.22
2023-01-27T18:01:12.357Z,94918.28
2023-01-27T18:03:58.132Z,94912.72
2023-01-27T18:06:43.788Z,94929.22
2023-01-27T18:09:29.800Z,94913.78
2023-01-27T18:12:35.340Z,94920.16
2023-01-27T18:15:41.110Z,94920.97
2023-01-27T18:18:30.143Z,94928.16
2023-01-27T18:21:17.500Z,94923.06
2023-01-27T18:24:10.206Z,94935.06
2023-01-27T18:26:56.641Z,94935.31
2023-01-27T18:29:42.904Z,94931.59
2023-01-27T18:32:29.489Z,94936.66
2023-01-27T18:35:22.071Z,94930.53
2023-01-27T18:38:24.848Z,94925.47
2023-01-27T18:41:12.002Z,94931.09
2023-01-27T18:43:59.159Z,94937.72
2023-01-27T18:46:45.762Z,94932.41
2023-01-27T18:49:34.329Z,94930.03
2023-01-27T18:52:20.615Z,94940.69
2023-01-27T18:55:10.698Z,94942.78
2023-01-27T18:57:57.652Z,94940.38
2023-01-27T19:00:46.030Z,94944.91
2023-01-27T19:03:34.898Z,94945.44
2023-01-27T19:06:20.737Z,94949.16
2023-01-27T19:09:10.533Z,94947.56
2023-01-27T19:11:57.292Z,94953.41
2023-01-27T19:14:43.779Z,94951.28
2023-01-27T19:17:30.140Z,94960.34
2023-01-27T19:20:17.648Z,94953.41
2023-01-27T19:23:04.678Z,94958.75
2023-01-27T19:25:52.085Z,94953.41
2023-01-27T19:28:39.105Z,94950.75
2023-01-27T19:31:25.500Z,94947.00
2023-01-27T19:34:11.711Z,94960.56
2023-01-27T19:36:58.033Z,94961.38
2023-01-27T19:39:45.465Z,94969.38
2023-01-27T19:42:31.708Z,94960.88
2023-01-27T19:45:19.243Z,94964.06
2023-01-27T19:48:06.301Z,94973.09
2023-01-27T19:50:53.217Z,94965.13
2023-01-27T19:53:39.238Z,94966.72
2023-01-27T19:56:25.374Z,94968.88
2023-01-27T19:59:11.267Z,94966.75
2023-01-27T20:01:58.234Z,94972.63
2023-01-27T20:04:44.390Z,94979.25
2023-01-27T20:07:30.630Z,94965.69
2023-01-27T20:10:18.121Z,94975.28
2023-01-27T20:13:04.923Z,94971.53
2023-01-27T20:15:50.366Z,94979.53
2023-01-27T20:18:35.935Z,94975.28
2023-01-27T20:21:22.378Z,94981.69
2023-01-27T20:24:07.919Z,94978.22
2023-01-27T20:26:53.721Z,94980.63
2023-01-27T20:29:39.717Z,94983.31
2023-01-27T20:32:26.366Z,94982.50
2023-01-27T20:35:13.041Z,94988.09
2023-01-27T20:37:58.809Z,94980.66
2023-01-27T20:40:44.527Z,94987.34
2023-01-27T20:43:35.287Z,94985.97
2023-01-27T20:46:21.296Z,94983.59
2023-01-27T20:49:07.034Z,94982.78
2023-01-27T20:51:52.776Z,94998.25
2023-01-27T20:54:38.130Z,94989.19
2023-01-27T20:57:25.418Z,94989.72
2023-01-27T21:00:15.583Z,94990.78
2023-01-27T21:03:04.198Z,94996.41
2023-01-27T21:05:49.775Z,94999.84
2023-01-27T21:08:35.264Z,95003.34
2023-01-27T21:11:21.419Z,95016.13
2023-01-27T21:14:07.107Z,95014.78
2023-01-27T21:16:52.761Z,95019.84
2023-01-27T21:19:38.345Z,95013.72
2023-01-27T21:22:24.203Z,95012.13
2023-01-27T21:25:11.030Z,95022.78
2023-01-27T21:27:56.393Z,95014.53
2023-01-27T21:30:42.408Z,95020.13
2023-01-27T21:33:28.019Z,95024.94
2023-01-27T21:36:13.924Z,95034.00
2023-01-27T21:39:01.725Z,95027.06
2023-01-27T21:41:53.184Z,95026.53
2023-01-27T21:44:57.781Z,95018.53
2023-01-27T21:47:43.409Z,95030.81
2023-01-27T21:50:29.084Z,95034.00
2023-01-27T21:53:14.565Z,95045.47
2023-01-27T21:56:06.839Z,95043.06
2023-01-27T21:58:52.371Z,95043.59
2023-01-27T22:01:38.031Z,95046.78
2023-01-27T22:04:23.735Z,95042.53
2023-01-27T22:07:12.544Z,95048.41
2023-01-27T22:09:58.256Z,95047.84
2023-01-27T22:12:44.531Z,95048.91
2023-01-27T22:15:30.625Z,95046.00
2023-01-27T22:18:16.227Z,95051.31
2023-01-27T22:21:02.308Z,95045.19
2023-01-27T22:23:48.046Z,95046.00
2023-01-27T22:26:35.155Z,95048.66
2023-01-27T22:29:20.657Z,95052.66
2023-01-27T22:32:07.603Z,95050.53
2023-01-27T22:34:52.914Z,95048.38
2023-01-27T22:37:38.985Z,95044.66
2023-01-27T22:40:24.424Z,95046.25
2023-01-27T22:43:10.754Z,95039.03
2023-01-27T22:45:59.602Z,95045.19
2023-01-27T22:48:49.193Z,95043.03
2023-01-27T22:51:34.896Z,95044.63
2023-01-27T22:54:20.307Z,95032.91
2023-01-27T22:57:05.640Z,95046.19
2023-01-27T22:59:51.552Z,95042.50
2023-01-27T23:02:37.014Z,95044.06
2023-01-27T23:05:22.921Z,95045.94
2023-01-27T23:08:08.412Z,95042.44
2023-01-27T23:10:54.239Z,95038.19
2023-01-27T23:13:39.685Z,95028.03
2023-01-27T23:16:25.602Z,95035.75
2023-01-27T23:19:11.595Z,95034.41
2023-01-27T23:21:57.031Z,95041.88
2023-01-27T23:24:43.015Z,95040.25
2023-01-27T23:27:28.684Z,95037.56
2023-01-27T23:30:14.339Z,95038.38
2023-01-27T23:32:59.746Z,95044.50
2023-01-27T23:35:45.827Z,95036.50
2023-01-27T23:38:33.193Z,95043.94
2023-01-27T23:41:20.480Z,95045.56
2023-01-27T23:44:38.431Z,95053.00
2023-01-27T23:47:24.259Z,95056.72
2023-01-27T23:50:10.155Z,95055.13
2023-01-27T23:57:22.787Z,95055.66
